Weather - Helsinki Query any day in the database

Current weather  

Weather data for a selected day (2006-01-01 -2020-10-31)
Enter date:     <-     scroll days         ->
day curves
Low temperature°C -30.009:50
High temperature°C -9.023:20
Low wind chill°C -34.109:50
Average temperature°C -20.9 
High wind speed (10 min) m/s 4.013:20
Low pressurehPa 1005.023:20
High pressurehPa 1018.000:20
Low R.H% 6808:20
High R.H% 9223:20
Day weather data as a table
Date Time Temp
°C
Chill
°C
Pressure
hPA
Wind
m/s
Hum
%
Precip
mm
2013-01-19 23:20:00 -9.0  -14.3  1005.0 3.0 92 -
2013-01-19 22:50:00 -9.0  -13.0  1005.0 2.0 92 -
2013-01-19 22:20:00 -9.0  -14.3  1005.0 3.0 85 -
2013-01-19 21:50:00 -10.0  -11.9  1005.0 1.0 85 -
2013-01-19 21:20:00 -11.0  -13.0  1006.0 1.0 92 -
2013-01-19 20:50:00 -11.0  -16.7  1006.0 3.0 85 -
2013-01-19 20:20:00 -12.0  -17.9  1006.0 3.0 92 -
2013-01-19 19:50:00 -12.0  -17.9  1006.0 3.0 85 -
2013-01-19 19:20:00 -13.0  -19.1  1006.0 3.0 84 -
2013-01-19 18:50:00 -14.0  -18.8  1007.0 2.0 84 -
2013-01-19 18:20:00 -14.0  -16.4  1007.0 1.0 84 -
2013-01-19 17:50:00 -14.0  -20.3  1007.0 3.0 84 -
2013-01-19 17:20:00 -14.0  -18.8  1008.0 2.0 77 -
2013-01-19 16:50:00 -14.0  -20.3  1008.0 3.0 77 -
2013-01-19 16:20:00 -14.0  -20.3  1008.0 3.0 77 -
2013-01-19 15:50:00 -15.0  -20.0  1009.0 2.0 71 -
2013-01-19 14:50:00 -16.0  -21.1  1009.0 2.0 71 -
2013-01-19 14:20:00 -15.0  -20.0  1009.0 2.0 71 -
2013-01-19 13:50:00 -16.0  -22.7  1010.0 3.0 77 -
2013-01-19 13:20:00 -17.0  -25.2  1010.0 4.0 77 -
2013-01-19 12:50:00 -19.0  -21.9  1010.0 1.0 77 -
2013-01-19 12:20:00 -23.0  -26.3  1011.0 1.0 83 -
2013-01-19 11:50:00 -23.0  -26.3  1011.0 1.0 91 -
2013-01-19 11:20:00 -26.0  -29.6  1012.0 1.0 83 -
2013-01-19 10:50:00 -26.0  -29.6  1012.0 1.0 83 -
2013-01-19 10:20:00 -28.0  -31.9  1012.0 1.0 82 -
2013-01-19 09:50:00 -30.0  -34.1  1013.0 1.0 82 -
2013-01-19 09:20:00 -29.0  -33.0  1013.0 1.0 75 -
2013-01-19 08:50:00 -30.0  -30.0  1013.0 0.0 75 -
2013-01-19 08:20:00 -29.0  -33.0  1013.0 1.0 68 -
2013-01-19 07:50:00 -29.0  -29.0  1013.0 0.0 75 -
2013-01-19 07:20:00 -30.0  -34.1  1014.0 1.0 75 -
2013-01-19 06:50:00 -28.0  -31.9  1014.0 1.0 75 -
2013-01-19 06:20:00 -28.0  -31.9  1014.0 1.0 75 -
2013-01-19 05:50:00 -29.0  -29.0  1015.0 0.0 75 -
2013-01-19 05:20:00 -29.0  -33.0  1015.0 1.0 75 -
2013-01-19 04:50:00 -27.0  -30.8  1016.0 1.0 75 -
2013-01-19 04:20:00 -27.0  -30.8  1016.0 1.0 75 -
2013-01-19 03:50:00 -28.0  -31.9  1016.0 1.0 75 -
2013-01-19 03:20:00 -27.0  -30.8  1017.0 1.0 75 -
2013-01-19 02:20:00 -28.0  -31.9  1017.0 1.0 75 -
2013-01-19 01:50:00 -28.0  -31.9  1017.0 1.0 82 -
2013-01-19 01:20:00 -27.0  -33.9  1017.0 2.0 83 -
2013-01-19 00:50:00 -28.0  -31.9  1017.0 1.0 75 -
2013-01-19 00:20:00 -25.0  -28.5  1018.0 1.0 76 -
Unit conversions: